createdAt,value
2022-08-25T00:00:13.069Z,78.58
2022-08-25T00:02:39.770Z,78.48
2022-08-25T00:05:08.086Z,78.23
2022-08-25T00:07:37.048Z,79.26
2022-08-25T00:10:07.140Z,79.79
2022-08-25T00:12:35.473Z,79.67
2022-08-25T00:15:02.089Z,79.67
2022-08-25T00:17:29.574Z,80.17
2022-08-25T00:19:56.368Z,80.22
2022-08-25T00:22:23.196Z,79.53
2022-08-25T00:24:50.134Z,80.78
2022-08-25T00:27:18.416Z,80.41
2022-08-25T00:29:45.111Z,81.02
2022-08-25T00:32:13.568Z,80.05
2022-08-25T00:34:41.156Z,81.78
2022-08-25T00:37:11.981Z,81.21
2022-08-25T00:39:40.987Z,81.35
2022-08-25T00:42:15.788Z,81.88
2022-08-25T00:44:44.073Z,81.69
2022-08-25T00:47:12.668Z,82.59
2022-08-25T00:49:44.223Z,82.34
2022-08-25T00:52:21.193Z,82.76
2022-08-25T00:55:07.925Z,82.35
2022-08-25T00:57:43.315Z,82.40
2022-08-25T01:00:19.916Z,83.36
2022-08-25T01:02:47.042Z,83.02
2022-08-25T01:05:15.062Z,82.78
2022-08-25T01:07:44.701Z,82.36
2022-08-25T01:10:13.841Z,81.86
2022-08-25T01:12:41.491Z,82.27
2022-08-25T01:15:10.650Z,82.21
2022-08-25T01:17:53.429Z,82.91
2022-08-25T01:20:24.075Z,82.23
2022-08-25T01:22:57.855Z,83.23
2022-08-25T01:25:53.938Z,83.33
2022-08-25T01:28:21.413Z,84.49
2022-08-25T01:30:50.315Z,85.39
2022-08-25T01:33:17.710Z,85.31
2022-08-25T01:35:45.555Z,85.73
2022-08-25T01:38:13.135Z,86.31
2022-08-25T01:40:43.011Z,87.26
2022-08-25T01:43:16.260Z,86.24
2022-08-25T01:45:46.408Z,85.58
2022-08-25T01:48:14.140Z,86.06
2022-08-25T01:50:42.446Z,85.02
2022-08-25T01:53:40.019Z,86.04
2022-08-25T01:56:16.097Z,85.47
2022-08-25T01:58:46.328Z,84.99
2022-08-25T02:01:16.297Z,86.76
2022-08-25T02:03:46.355Z,87.46
2022-08-25T02:06:17.314Z,87.53
2022-08-25T02:08:44.335Z,87.88
2022-08-25T02:11:14.737Z,88.72
2022-08-25T02:13:43.275Z,87.80
2022-08-25T02:16:17.969Z,87.71
2022-08-25T02:18:46.541Z,87.18
2022-08-25T02:21:15.697Z,87.31
2022-08-25T02:23:44.281Z,86.67
2022-08-25T02:26:12.731Z,86.86
2022-08-25T02:28:40.893Z,87.58
2022-08-25T02:31:07.719Z,87.86
2022-08-25T02:33:34.377Z,89.91
2022-08-25T02:36:03.114Z,88.84
2022-08-25T02:38:33.096Z,89.74
2022-08-25T02:41:02.401Z,89.48
2022-08-25T02:43:31.202Z,88.61
2022-08-25T02:46:00.267Z,88.25
2022-08-25T02:48:28.739Z,87.96
2022-08-25T02:50:55.836Z,87.66
2022-08-25T02:53:22.620Z,87.38
2022-08-25T02:55:51.284Z,87.52
2022-08-25T02:58:18.452Z,87.53
2022-08-25T03:00:46.914Z,87.91
2022-08-25T03:03:14.140Z,87.99
2022-08-25T03:05:41.102Z,88.15
2022-08-25T03:08:09.401Z,88.39
2022-08-25T03:10:37.855Z,88.60
2022-08-25T03:13:05.302Z,88.29
2022-08-25T03:15:33.564Z,88.73
2022-08-25T03:18:02.300Z,88.88
2022-08-25T03:20:30.692Z,88.67
2022-08-25T03:22:57.547Z,89.80
2022-08-25T03:25:44.314Z,90.39
2022-08-25T03:28:11.855Z,91.14
2022-08-25T03:30:39.259Z,91.23
2022-08-25T03:33:06.789Z,91.29
2022-08-25T03:35:33.727Z,92.03
2022-08-25T03:38:01.649Z,91.53
2022-08-25T03:40:30.500Z,91.36
2022-08-25T03:42:59.705Z,91.36
2022-08-25T03:45:27.215Z,91.23
2022-08-25T03:47:55.325Z,91.70
2022-08-25T03:50:25.078Z,92.22
2022-08-25T03:52:54.122Z,92.58
2022-08-25T03:55:22.959Z,91.95
2022-08-25T03:57:49.923Z,91.23
2022-08-25T04:00:17.694Z,91.78
2022-08-25T04:02:45.985Z,91.97
2022-08-25T04:05:13.856Z,92.02
2022-08-25T04:07:43.140Z,91.59
2022-08-25T04:10:11.165Z,91.31
2022-08-25T04:12:38.537Z,91.64
2022-08-25T04:15:06.345Z,91.28
2022-08-25T04:17:33.918Z,90.21
2022-08-25T04:20:02.504Z,90.18
2022-08-25T04:22:31.257Z,90.80
2022-08-25T04:25:01.017Z,90.63
2022-08-25T04:27:27.988Z,91.22
2022-08-25T04:29:55.188Z,91.86
2022-08-25T04:32:23.073Z,91.68
2022-08-25T04:34:50.197Z,92.27
2022-08-25T04:37:17.095Z,92.47
2022-08-25T04:39:44.008Z,92.13
2022-08-25T04:42:11.651Z,91.75
2022-08-25T04:44:39.136Z,91.79
2022-08-25T04:47:06.239Z,91.49
2022-08-25T04:49:33.247Z,92.13
2022-08-25T04:52:00.301Z,91.51
2022-08-25T04:54:28.632Z,91.00
2022-08-25T04:56:59.189Z,91.13
2022-08-25T04:59:29.433Z,90.70
2022-08-25T05:01:59.490Z,90.01
2022-08-25T05:04:28.311Z,89.84
2022-08-25T05:06:56.942Z,90.21
2022-08-25T05:09:25.432Z,90.34
2022-08-25T05:11:53.504Z,90.29
2022-08-25T05:14:26.160Z,90.07
2022-08-25T05:16:53.774Z,90.01
2022-08-25T05:19:20.435Z,89.58
2022-08-25T05:21:48.058Z,89.79
2022-08-25T05:24:15.744Z,89.16
2022-08-25T05:26:44.283Z,88.89
2022-08-25T05:29:12.082Z,89.51
2022-08-25T05:31:43.106Z,89.28
2022-08-25T05:34:12.438Z,88.71
2022-08-25T05:36:43.597Z,88.23
2022-08-25T05:39:11.246Z,87.72
2022-08-25T05:41:38.478Z,87.21
2022-08-25T05:44:06.164Z,87.07
2022-08-25T05:46:33.123Z,86.63
2022-08-25T05:49:00.530Z,86.02
2022-08-25T05:51:27.431Z,85.36
2022-08-25T05:53:54.727Z,85.41
2022-08-25T05:56:22.604Z,84.74
2022-08-25T05:58:50.426Z,84.39
2022-08-25T06:01:45.348Z,84.36
2022-08-25T06:04:13.309Z,83.68
2022-08-25T06:06:40.934Z,84.16
2022-08-25T06:09:09.206Z,84.13
2022-08-25T06:11:38.316Z,83.87
2022-08-25T06:14:06.630Z,83.74
2022-08-25T06:16:33.645Z,83.28
2022-08-25T06:19:01.465Z,82.78
2022-08-25T06:21:29.783Z,82.79
2022-08-25T06:23:57.861Z,83.72
2022-08-25T06:26:24.796Z,83.39
2022-08-25T06:28:52.296Z,83.35
2022-08-25T06:31:20.691Z,83.73
2022-08-25T06:33:47.395Z,83.91
2022-08-25T06:36:15.766Z,83.60
2022-08-25T06:38:42.348Z,84.00
2022-08-25T06:41:13.034Z,83.48
2022-08-25T06:43:48.057Z,84.88
2022-08-25T06:46:34.726Z,85.02
2022-08-25T06:49:05.547Z,83.40
2022-08-25T06:51:36.231Z,83.47
2022-08-25T06:54:05.002Z,82.75
2022-08-25T06:56:32.041Z,82.02
2022-08-25T06:59:01.109Z,81.98
2022-08-25T07:01:27.878Z,81.18
2022-08-25T07:03:57.890Z,82.53
2022-08-25T07:06:25.172Z,81.92
2022-08-25T07:08:51.836Z,82.28
2022-08-25T07:11:21.361Z,81.64
2022-08-25T07:13:48.697Z,81.57
2022-08-25T07:16:16.121Z,81.02
2022-08-25T07:18:44.173Z,79.99
2022-08-25T07:21:33.639Z,80.80
2022-08-25T07:24:06.277Z,79.03
2022-08-25T07:26:38.483Z,80.04
2022-08-25T07:29:14.447Z,79.01
2022-08-25T07:31:41.762Z,79.17
2022-08-25T07:34:28.497Z,77.55
2022-08-25T07:36:57.152Z,76.56
2022-08-25T07:39:25.381Z,76.87
2022-08-25T07:41:53.156Z,76.77
2022-08-25T07:44:21.701Z,76.53
2022-08-25T07:46:50.310Z,75.80
2022-08-25T07:49:23.252Z,76.22
2022-08-25T07:52:05.427Z,76.39
2022-08-25T07:54:35.240Z,77.30
2022-08-25T07:57:03.852Z,76.28
2022-08-25T07:59:33.465Z,74.43
2022-08-25T08:02:16.137Z,74.75
2022-08-25T08:04:49.281Z,74.79
2022-08-25T08:07:24.081Z,74.26
2022-08-25T08:10:33.186Z,74.51
2022-08-25T08:12:56.893Z,74.75
2022-08-25T08:15:23.798Z,74.35
2022-08-25T08:17:51.481Z,73.96
2022-08-25T08:20:23.424Z,72.07
2022-08-25T08:22:51.524Z,71.93
2022-08-25T08:25:21.597Z,71.95
2022-08-25T08:27:59.377Z,71.93
2022-08-25T08:30:26.656Z,72.91
2022-08-25T08:33:19.620Z,71.26
2022-08-25T08:35:41.908Z,71.14
2022-08-25T08:38:14.703Z,71.12
2022-08-25T08:41:23.238Z,72.31
2022-08-25T08:43:57.034Z,71.40
2022-08-25T08:46:26.255Z,69.47
2022-08-25T08:49:01.817Z,70.67
2022-08-25T08:51:33.423Z,68.61
2022-08-25T08:54:21.487Z,69.20
2022-08-25T08:56:53.524Z,68.54
2022-08-25T08:59:30.075Z,68.28
2022-08-25T09:02:04.212Z,67.59
2022-08-25T09:05:05.510Z,67.46
2022-08-25T09:07:47.918Z,65.77
2022-08-25T09:10:17.227Z,66.05
2022-08-25T09:12:55.362Z,64.08
2022-08-25T09:15:49.776Z,65.42
2022-08-25T09:18:31.821Z,64.43
2022-08-25T09:21:21.925Z,66.11
2022-08-25T09:24:16.792Z,66.14
2022-08-25T09:26:59.047Z,66.72
2022-08-25T09:29:35.688Z,63.82
2022-08-25T09:32:06.921Z,63.77
2022-08-25T09:34:40.436Z,62.54
2022-08-25T09:37:08.275Z,62.34
2022-08-25T09:39:36.762Z,62.83
2022-08-25T09:42:03.880Z,62.65
2022-08-25T09:44:34.860Z,61.83
2022-08-25T09:47:20.148Z,61.48
2022-08-25T09:49:58.032Z,60.98
2022-08-25T09:52:41.702Z,60.13
2022-08-25T09:55:26.582Z,59.59
2022-08-25T09:57:57.008Z,60.54
2022-08-25T10:00:33.833Z,60.01
2022-08-25T10:03:10.843Z,59.05
2022-08-25T10:06:00.506Z,60.78
2022-08-25T10:08:37.747Z,59.37
2022-08-25T10:11:14.727Z,60.55
2022-08-25T10:13:47.174Z,59.56
2022-08-25T10:16:36.243Z,56.62
2022-08-25T10:19:28.951Z,59.06
2022-08-25T10:22:11.172Z,57.81
2022-08-25T10:24:43.854Z,59.13
2022-08-25T10:27:28.743Z,57.21
2022-08-25T10:30:19.640Z,57.34
2022-08-25T10:33:03.943Z,57.65
2022-08-25T10:36:09.302Z,56.94
2022-08-25T10:38:59.002Z,56.86
2022-08-25T10:42:03.592Z,57.02
2022-08-25T10:45:16.807Z,57.41
2022-08-25T10:48:03.875Z,56.92
2022-08-25T10:51:13.590Z,57.53
2022-08-25T10:54:02.414Z,57.28
2022-08-25T10:56:42.517Z,57.73
2022-08-25T10:59:28.154Z,57.58
2022-08-25T11:02:13.582Z,57.25
2022-08-25T11:04:47.190Z,56.11
2022-08-25T11:07:20.364Z,56.40
2022-08-25T11:09:50.383Z,55.41
2022-08-25T11:12:24.337Z,55.38
2022-08-25T11:14:58.766Z,56.31
2022-08-25T11:17:27.967Z,55.88
2022-08-25T11:20:01.778Z,54.74
2022-08-25T11:22:45.834Z,54.66
2022-08-25T11:25:30.439Z,55.41
2022-08-25T11:28:26.472Z,55.44
2022-08-25T11:30:55.298Z,54.89
2022-08-25T11:33:24.042Z,52.80
2022-08-25T11:35:57.056Z,53.87
2022-08-25T11:38:57.226Z,53.41
2022-08-25T11:41:47.116Z,52.46
2022-08-25T11:44:18.023Z,52.00
2022-08-25T11:47:21.580Z,51.58
2022-08-25T11:50:02.238Z,50.45
2022-08-25T11:52:49.509Z,52.82
2022-08-25T11:55:30.784Z,52.79
2022-08-25T11:58:21.980Z,52.60
2022-08-25T12:00:49.112Z,52.35
2022-08-25T12:03:54.987Z,52.77
2022-08-25T12:06:34.500Z,51.47
2022-08-25T12:09:21.695Z,51.63
2022-08-25T12:11:58.394Z,51.35
2022-08-25T12:14:37.126Z,50.68
2022-08-25T12:17:22.439Z,50.34
2022-08-25T12:19:53.515Z,50.04
2022-08-25T12:22:41.014Z,50.06
2022-08-25T12:25:28.629Z,50.67
2022-08-25T12:28:05.559Z,50.52
2022-08-25T12:30:50.648Z,49.10
2022-08-25T12:33:54.524Z,49.98
2022-08-25T12:36:29.468Z,50.29
2022-08-25T12:39:19.270Z,49.61
2022-08-25T12:41:59.630Z,49.85
2022-08-25T12:44:41.354Z,50.24
2022-08-25T12:47:32.125Z,50.45
2022-08-25T12:50:37.301Z,49.90
2022-08-25T12:53:31.893Z,49.00
2022-08-25T12:56:05.072Z,50.44
2022-08-25T12:58:59.824Z,50.71
2022-08-25T13:01:45.126Z,49.89
2022-08-25T13:04:52.986Z,50.35
2022-08-25T13:07:42.792Z,48.98
2022-08-25T13:10:24.400Z,48.26
2022-08-25T13:13:00.198Z,47.82
2022-08-25T13:15:42.018Z,49.10
2022-08-25T13:18:33.634Z,47.93
2022-08-25T13:21:23.657Z,48.83
2022-08-25T13:23:54.086Z,48.37
2022-08-25T13:26:34.131Z,50.13
2022-08-25T13:29:12.320Z,48.43
2022-08-25T13:31:51.712Z,49.29
2022-08-25T13:34:23.350Z,48.96
2022-08-25T13:37:30.470Z,49.34
2022-08-25T13:40:26.074Z,48.93
2022-08-25T13:42:58.900Z,49.31
2022-08-25T13:45:31.857Z,50.47
2022-08-25T13:47:58.736Z,48.24
2022-08-25T13:50:38.267Z,48.88
2022-08-25T13:53:36.187Z,49.49
2022-08-25T13:56:04.390Z,48.73
2022-08-25T13:58:45.154Z,48.96
2022-08-25T14:01:48.704Z,49.66
2022-08-25T14:04:26.902Z,48.95
2022-08-25T14:07:33.651Z,49.02
2022-08-25T14:10:05.755Z,48.71
2022-08-25T14:12:45.684Z,48.92
2022-08-25T14:15:32.144Z,47.25
2022-08-25T14:18:06.734Z,46.43
2022-08-25T14:20:35.760Z,46.47
2022-08-25T14:23:16.256Z,45.97
2022-08-25T14:25:46.464Z,45.36
2022-08-25T14:28:17.984Z,45.58
2022-08-25T14:30:51.676Z,46.26
2022-08-25T14:33:20.832Z,46.49
2022-08-25T14:35:49.608Z,46.84
2022-08-25T14:38:17.799Z,46.99
2022-08-25T14:40:48.587Z,47.20
2022-08-25T14:43:17.514Z,47.00
2022-08-25T14:45:48.259Z,47.05
2022-08-25T14:48:42.591Z,47.05
2022-08-25T14:51:11.982Z,47.97
2022-08-25T14:53:38.790Z,47.73
2022-08-25T14:56:09.274Z,47.33
2022-08-25T14:58:50.796Z,47.62
2022-08-25T15:01:29.168Z,49.01
2022-08-25T15:04:01.751Z,47.49
2022-08-25T15:06:29.156Z,47.38
2022-08-25T15:09:08.313Z,47.45
2022-08-25T15:11:38.710Z,46.55
2022-08-25T15:14:10.766Z,46.93
2022-08-25T15:16:42.169Z,47.64
2022-08-25T15:19:11.930Z,47.22
2022-08-25T15:21:40.191Z,46.53
2022-08-25T15:24:11.187Z,46.33
2022-08-25T15:29:24.117Z,46.25
2022-08-25T15:31:51.805Z,45.49
2022-08-25T15:34:19.847Z,46.45
2022-08-25T15:36:46.896Z,45.75
2022-08-25T15:39:15.894Z,45.48
2022-08-25T15:41:49.525Z,45.17
2022-08-25T15:44:16.891Z,43.71
2022-08-25T15:46:49.557Z,44.14
2022-08-25T15:49:20.893Z,45.01
2022-08-25T15:51:50.308Z,44.57
2022-08-25T15:54:17.280Z,45.03
2022-08-25T15:56:46.667Z,44.71
2022-08-25T15:59:14.617Z,45.09
2022-08-25T16:01:42.070Z,44.00
2022-08-25T16:04:08.705Z,44.84
2022-08-25T16:06:37.001Z,45.30
2022-08-25T16:09:04.767Z,45.73
2022-08-25T16:11:33.788Z,44.86
2022-08-25T16:14:03.515Z,45.33
2022-08-25T16:16:31.506Z,45.39
2022-08-25T16:19:00.244Z,45.70
2022-08-25T16:21:32.239Z,45.63
2022-08-25T16:24:05.476Z,46.77
2022-08-25T16:26:36.880Z,46.32
2022-08-25T16:29:07.835Z,47.08
2022-08-25T16:31:37.099Z,47.41
2022-08-25T16:34:04.324Z,47.74
2022-08-25T16:36:31.858Z,47.68
2022-08-25T16:38:58.971Z,47.79
2022-08-25T16:41:34.460Z,47.09
2022-08-25T16:44:11.066Z,47.30
2022-08-25T16:46:44.422Z,48.63
2022-08-25T16:49:16.000Z,47.61
2022-08-25T16:51:43.585Z,47.81
2022-08-25T16:54:31.566Z,49.29
2022-08-25T16:57:02.381Z,48.09
2022-08-25T16:59:33.857Z,48.94
2022-08-25T17:02:00.637Z,48.65
2022-08-25T17:04:31.991Z,48.28
2022-08-25T17:07:01.991Z,48.90
2022-08-25T17:09:31.853Z,49.26
2022-08-25T17:11:59.563Z,48.21
2022-08-25T17:14:26.298Z,48.04
2022-08-25T17:16:55.220Z,48.15
2022-08-25T17:19:23.722Z,48.74
2022-08-25T17:21:51.290Z,48.53
2022-08-25T17:24:20.026Z,49.11
2022-08-25T17:26:51.697Z,49.29
2022-08-25T17:29:19.367Z,49.02
2022-08-25T17:31:49.138Z,49.51
2022-08-25T17:34:23.174Z,48.92
2022-08-25T17:36:50.895Z,49.27
2022-08-25T17:39:22.381Z,49.60
2022-08-25T17:41:50.743Z,49.94
2022-08-25T17:44:19.737Z,49.06
2022-08-25T17:46:48.072Z,49.06
2022-08-25T17:49:17.544Z,50.16
2022-08-25T17:51:45.099Z,51.07
2022-08-25T17:54:13.163Z,50.19
2022-08-25T17:56:40.230Z,50.69
2022-08-25T17:59:10.159Z,51.38
2022-08-25T18:01:42.212Z,50.90
2022-08-25T18:04:15.651Z,51.22
2022-08-25T18:06:48.136Z,51.54
2022-08-25T18:09:16.004Z,51.33
2022-08-25T18:11:42.669Z,51.72
2022-08-25T18:14:11.757Z,51.46
2022-08-25T18:16:39.016Z,51.50
2022-08-25T18:19:06.597Z,51.66
2022-08-25T18:21:36.870Z,51.95
2022-08-25T18:24:04.185Z,51.62
2022-08-25T18:26:31.620Z,52.27
2022-08-25T18:29:03.035Z,51.96
2022-08-25T18:31:29.949Z,52.99
2022-08-25T18:33:57.566Z,52.19
2022-08-25T18:36:24.186Z,52.25
2022-08-25T18:39:11.210Z,52.37
2022-08-25T18:41:42.616Z,52.63
2022-08-25T18:44:10.929Z,53.70
2022-08-25T18:46:39.536Z,52.46
2022-08-25T18:49:06.407Z,53.19
2022-08-25T18:51:33.384Z,52.48
2022-08-25T18:54:01.067Z,52.25
2022-08-25T18:56:29.456Z,53.27
2022-08-25T18:58:57.222Z,53.25
2022-08-25T19:01:24.138Z,54.20
2022-08-25T19:03:51.267Z,54.00
2022-08-25T19:06:19.425Z,55.04
2022-08-25T19:08:48.022Z,53.47
2022-08-25T19:11:15.997Z,54.04
2022-08-25T19:13:42.901Z,54.54
2022-08-25T19:16:20.358Z,55.44
2022-08-25T19:18:50.050Z,54.29
2022-08-25T19:21:22.658Z,54.87
2022-08-25T19:23:50.667Z,55.30
2022-08-25T19:26:18.056Z,55.00
2022-08-25T19:28:48.794Z,55.80
2022-08-25T19:31:18.371Z,55.11
2022-08-25T19:33:46.914Z,56.33
2022-08-25T19:36:22.912Z,55.59
2022-08-25T19:38:53.927Z,55.54
2022-08-25T19:41:22.471Z,55.89
2022-08-25T19:43:58.549Z,54.96
2022-08-25T19:46:36.620Z,55.41
2022-08-25T19:49:09.877Z,56.08
2022-08-25T19:51:50.482Z,56.45
2022-08-25T19:54:30.353Z,56.42
2022-08-25T19:57:01.552Z,57.78
2022-08-25T19:59:36.573Z,56.87
2022-08-25T20:02:17.377Z,57.87
2022-08-25T20:04:49.749Z,58.04
2022-08-25T20:07:25.764Z,58.00
2022-08-25T20:10:01.787Z,57.96
2022-08-25T20:12:38.343Z,58.09
2022-08-25T20:15:11.947Z,57.93
2022-08-25T20:17:47.220Z,58.35
2022-08-25T20:20:23.589Z,58.75
2022-08-25T20:23:17.660Z,59.33
2022-08-25T20:25:51.975Z,59.73
2022-08-25T20:28:26.025Z,59.99
2022-08-25T20:31:03.290Z,60.13
2022-08-25T20:33:37.222Z,60.70
2022-08-25T20:36:13.426Z,61.20
2022-08-25T20:38:47.318Z,61.37
2022-08-25T20:41:18.374Z,60.59
2022-08-25T20:43:50.007Z,60.63
2022-08-25T20:46:24.708Z,60.74
2022-08-25T20:49:00.400Z,60.81
2022-08-25T20:51:36.028Z,59.89
2022-08-25T20:54:11.345Z,60.94
2022-08-25T20:56:46.803Z,61.47
2022-08-25T20:59:20.306Z,61.75
2022-08-25T21:01:53.687Z,63.77
2022-08-25T21:04:28.947Z,63.18
2022-08-25T21:07:04.958Z,62.81
2022-08-25T21:09:40.719Z,63.15
2022-08-25T21:12:12.400Z,63.09
2022-08-25T21:14:47.017Z,64.39
2022-08-25T21:17:21.252Z,63.71
2022-08-25T21:19:55.704Z,63.47
2022-08-25T21:22:27.482Z,64.30
2022-08-25T21:25:03.450Z,64.43
2022-08-25T21:27:37.432Z,64.60
2022-08-25T21:30:10.694Z,64.73
2022-08-25T21:32:40.899Z,64.19
2022-08-25T21:35:28.200Z,64.85
2022-08-25T21:37:58.385Z,64.67
2022-08-25T21:40:30.801Z,65.39
2022-08-25T21:43:05.798Z,64.84
2022-08-25T21:45:46.649Z,65.71
2022-08-25T21:48:17.937Z,65.00
2022-08-25T21:50:48.476Z,66.09
2022-08-25T21:53:17.829Z,66.54
2022-08-25T21:55:44.873Z,66.32
2022-08-25T21:58:13.567Z,66.81
2022-08-25T22:00:44.264Z,66.21
2022-08-25T22:03:14.908Z,66.12
2022-08-25T22:05:46.008Z,65.97
2022-08-25T22:08:17.610Z,66.38
2022-08-25T22:10:48.584Z,67.82
2022-08-25T22:13:20.560Z,67.67
2022-08-25T22:15:52.025Z,67.78
2022-08-25T22:18:20.506Z,66.98
2022-08-25T22:20:51.029Z,68.66
2022-08-25T22:23:22.782Z,69.49
2022-08-25T22:25:57.710Z,68.71
2022-08-25T22:28:28.794Z,68.82
2022-08-25T22:30:57.284Z,68.97
2022-08-25T22:33:26.145Z,68.34
2022-08-25T22:35:59.830Z,67.77
2022-08-25T22:38:29.748Z,67.63
2022-08-25T22:41:04.621Z,68.32
2022-08-25T22:43:37.331Z,68.72
2022-08-25T22:46:08.524Z,68.86
2022-08-25T22:48:41.452Z,70.02
2022-08-25T22:51:13.215Z,69.85
2022-08-25T22:53:41.753Z,68.85
2022-08-25T22:56:12.756Z,69.89
2022-08-25T22:58:42.147Z,70.26
2022-08-25T23:01:20.849Z,69.80
2022-08-25T23:03:49.461Z,70.07
2022-08-25T23:06:22.682Z,70.40
2022-08-25T23:08:54.585Z,70.01
2022-08-25T23:11:25.214Z,69.59
2022-08-25T23:14:01.292Z,70.48
2022-08-25T23:16:31.869Z,70.96
2022-08-25T23:19:01.500Z,70.59
2022-08-25T23:21:50.206Z,70.77
2022-08-25T23:24:30.192Z,70.61
2022-08-25T23:27:03.745Z,71.60
2022-08-25T23:29:33.085Z,71.16
2022-08-25T23:32:03.508Z,70.40
2022-08-25T23:34:33.912Z,71.22
2022-08-25T23:37:04.271Z,71.80
2022-08-25T23:39:34.672Z,71.99
2022-08-25T23:42:08.945Z,72.79
2022-08-25T23:44:37.380Z,72.11
2022-08-25T23:47:08.047Z,72.51
2022-08-25T23:49:39.949Z,72.68
2022-08-25T23:52:09.028Z,72.35
2022-08-25T23:54:39.197Z,73.49
2022-08-25T23:57:09.567Z,73.99
2022-08-25T23:59:40.347Z,74.30
